sensor_id;sensor_type;location;lat;lon;timestamp;temperature;humidity
2124;DHT22;1068;52.460;13.528;2022-08-21T00:02:16;21.20;99.90
2124;DHT22;1068;52.460;13.528;2022-08-21T00:04:43;21.20;99.90
2124;DHT22;1068;52.460;13.528;2022-08-21T00:07:10;21.20;99.90
2124;DHT22;1068;52.460;13.528;2022-08-21T00:09:38;21.10;99.90
2124;DHT22;1068;52.460;13.528;2022-08-21T00:12:05;21.10;99.90
2124;DHT22;1068;52.460;13.528;2022-08-21T00:14:33;21.10;99.90
2124;DHT22;1068;52.460;13.528;2022-08-21T00:17:00;21.20;99.90
2124;DHT22;1068;52.460;13.528;2022-08-21T00:19:27;21.20;99.90
2124;DHT22;1068;52.460;13.528;2022-08-21T00:21:54;21.20;99.90
2124;DHT22;1068;52.460;13.528;2022-08-21T00:24:22;21.20;99.90
2124;DHT22;1068;52.460;13.528;2022-08-21T00:26:50;21.20;99.90
2124;DHT22;1068;52.460;13.528;2022-08-21T00:29:17;21.20;99.90
2124;DHT22;1068;52.460;13.528;2022-08-21T00:31:44;21.10;99.90
2124;DHT22;1068;52.460;13.528;2022-08-21T00:34:12;21.10;99.90
2124;DHT22;1068;52.460;13.528;2022-08-21T00:36:39;21.10;99.90
2124;DHT22;1068;52.460;13.528;2022-08-21T00:39:07;21.10;99.90
2124;DHT22;1068;52.460;13.528;2022-08-21T00:41:36;21.10;99.90
2124;DHT22;1068;52.460;13.528;2022-08-21T00:44:05;21.10;99.90
2124;DHT22;1068;52.460;13.528;2022-08-21T00:46:32;21.10;99.90
2124;DHT22;1068;52.460;13.528;2022-08-21T00:48:59;21.10;99.90
2124;DHT22;1068;52.460;13.528;2022-08-21T00:51:28;21.10;99.90
2124;DHT22;1068;52.460;13.528;2022-08-21T00:54:01;21.10;99.90
2124;DHT22;1068;52.460;13.528;2022-08-21T00:56:28;21.10;99.90
2124;DHT22;1068;52.460;13.528;2022-08-21T00:58:55;21.00;99.90
2124;DHT22;1068;52.460;13.528;2022-08-21T01:01:24;21.10;99.90
2124;DHT22;1068;52.460;13.528;2022-08-21T01:03:51;21.10;99.90
2124;DHT22;1068;52.460;13.528;2022-08-21T01:06:17;21.10;99.90
2124;DHT22;1068;52.460;13.528;2022-08-21T01:08:44;21.00;99.90
2124;DHT22;1068;52.460;13.528;2022-08-21T01:11:12;21.10;99.90
2124;DHT22;1068;52.460;13.528;2022-08-21T01:13:39;21.10;99.90
2124;DHT22;1068;52.460;13.528;2022-08-21T01:16:12;21.10;99.90
2124;DHT22;1068;52.460;13.528;2022-08-21T01:18:41;21.10;99.90
2124;DHT22;1068;52.460;13.528;2022-08-21T01:21:12;21.10;99.90
2124;DHT22;1068;52.460;13.528;2022-08-21T01:23:41;21.00;99.90
2124;DHT22;1068;52.460;13.528;2022-08-21T01:26:10;21.00;99.90
2124;DHT22;1068;52.460;13.528;2022-08-21T01:28:40;21.00;99.90
2124;DHT22;1068;52.460;13.528;2022-08-21T01:31:08;21.00;99.90
2124;DHT22;1068;52.460;13.528;2022-08-21T01:33:36;21.00;99.90
2124;DHT22;1068;52.460;13.528;2022-08-21T01:36:03;20.90;99.90
2124;DHT22;1068;52.460;13.528;2022-08-21T01:38:32;21.00;99.90
2124;DHT22;1068;52.460;13.528;2022-08-21T01:40:58;20.90;99.90
2124;DHT22;1068;52.460;13.528;2022-08-21T01:43:25;20.90;99.90
2124;DHT22;1068;52.460;13.528;2022-08-21T01:45:51;20.90;99.90
2124;DHT22;1068;52.460;13.528;2022-08-21T01:48:18;20.90;99.90
2124;DHT22;1068;52.460;13.528;2022-08-21T01:50:44;20.90;99.90
2124;DHT22;1068;52.460;13.528;2022-08-21T01:53:11;20.90;99.90
2124;DHT22;1068;52.460;13.528;2022-08-21T01:55:40;20.90;99.90
2124;DHT22;1068;52.460;13.528;2022-08-21T01:58:06;20.90;99.90
2124;DHT22;1068;52.460;13.528;2022-08-21T02:00:33;20.90;99.90
2124;DHT22;1068;52.460;13.528;2022-08-21T02:02:59;20.80;99.90
2124;DHT22;1068;52.460;13.528;2022-08-21T02:05:26;20.90;99.90
2124;DHT22;1068;52.460;13.528;2022-08-21T02:07:54;20.90;99.90
2124;DHT22;1068;52.460;13.528;2022-08-21T02:10:24;20.80;99.90
2124;DHT22;1068;52.460;13.528;2022-08-21T02:12:52;20.80;99.90
2124;DHT22;1068;52.460;13.528;2022-08-21T02:15:19;20.80;99.90
2124;DHT22;1068;52.460;13.528;2022-08-21T02:17:48;20.80;99.90
2124;DHT22;1068;52.460;13.528;2022-08-21T02:20:18;20.80;99.90
2124;DHT22;1068;52.460;13.528;2022-08-21T02:22:45;20.80;99.90
2124;DHT22;1068;52.460;13.528;2022-08-21T02:25:11;20.80;99.90
2124;DHT22;1068;52.460;13.528;2022-08-21T02:27:39;20.80;99.90
2124;DHT22;1068;52.460;13.528;2022-08-21T02:30:11;20.70;99.90
2124;DHT22;1068;52.460;13.528;2022-08-21T02:32:38;20.60;99.90
2124;DHT22;1068;52.460;13.528;2022-08-21T02:35:05;20.60;99.90
2124;DHT22;1068;52.460;13.528;2022-08-21T02:37:32;20.60;99.90
2124;DHT22;1068;52.460;13.528;2022-08-21T02:39:59;20.60;99.90
2124;DHT22;1068;52.460;13.528;2022-08-21T02:42:25;20.50;99.90
2124;DHT22;1068;52.460;13.528;2022-08-21T02:44:52;20.50;99.90
2124;DHT22;1068;52.460;13.528;2022-08-21T02:47:19;20.50;99.90
2124;DHT22;1068;52.460;13.528;2022-08-21T02:49:46;20.40;99.90
2124;DHT22;1068;52.460;13.528;2022-08-21T02:52:12;20.40;99.90
2124;DHT22;1068;52.460;13.528;2022-08-21T02:54:40;20.30;99.90
2124;DHT22;1068;52.460;13.528;2022-08-21T02:57:06;20.30;99.90
2124;DHT22;1068;52.460;13.528;2022-08-21T02:59:33;20.20;99.90
2124;DHT22;1068;52.460;13.528;2022-08-21T03:01:59;20.20;99.90
2124;DHT22;1068;52.460;13.528;2022-08-21T03:04:27;20.20;99.90
2124;DHT22;1068;52.460;13.528;2022-08-21T03:06:54;20.10;99.90
2124;DHT22;1068;52.460;13.528;2022-08-21T03:09:20;20.10;99.90
2124;DHT22;1068;52.460;13.528;2022-08-21T03:11:47;20.10;99.90
2124;DHT22;1068;52.460;13.528;2022-08-21T03:14:13;20.10;99.90
2124;DHT22;1068;52.460;13.528;2022-08-21T03:16:39;20.10;99.90
2124;DHT22;1068;52.460;13.528;2022-08-21T03:19:07;20.10;99.90
2124;DHT22;1068;52.460;13.528;2022-08-21T03:21:35;20.10;99.90
2124;DHT22;1068;52.460;13.528;2022-08-21T03:24:02;20.10;99.90
2124;DHT22;1068;52.460;13.528;2022-08-21T03:26:29;20.10;99.90
2124;DHT22;1068;52.460;13.528;2022-08-21T03:28:56;20.10;99.90
2124;DHT22;1068;52.460;13.528;2022-08-21T03:31:23;20.10;99.90
2124;DHT22;1068;52.460;13.528;2022-08-21T03:33:53;20.10;99.90
2124;DHT22;1068;52.460;13.528;2022-08-21T03:36:20;20.00;99.90
2124;DHT22;1068;52.460;13.528;2022-08-21T03:38:48;20.00;99.90
2124;DHT22;1068;52.460;13.528;2022-08-21T03:41:15;20.00;99.90
2124;DHT22;1068;52.460;13.528;2022-08-21T03:43:41;20.00;99.90
2124;DHT22;1068;52.460;13.528;2022-08-21T03:46:08;20.00;99.90
2124;DHT22;1068;52.460;13.528;2022-08-21T03:48:36;19.90;99.90
2124;DHT22;1068;52.460;13.528;2022-08-21T03:51:03;19.90;99.90
2124;DHT22;1068;52.460;13.528;2022-08-21T03:53:29;19.80;99.90
2124;DHT22;1068;52.460;13.528;2022-08-21T03:55:58;19.80;99.90
2124;DHT22;1068;52.460;13.528;2022-08-21T03:58:27;19.80;99.90
2124;DHT22;1068;52.460;13.528;2022-08-21T04:00:57;19.80;99.90
2124;DHT22;1068;52.460;13.528;2022-08-21T04:03:25;19.80;99.90
2124;DHT22;1068;52.460;13.528;2022-08-21T04:05:52;19.80;99.90
2124;DHT22;1068;52.460;13.528;2022-08-21T04:08:19;19.80;99.90
2124;DHT22;1068;52.460;13.528;2022-08-21T04:10:48;19.80;99.90
2124;DHT22;1068;52.460;13.528;2022-08-21T04:13:17;19.80;99.90
2124;DHT22;1068;52.460;13.528;2022-08-21T04:15:44;19.80;99.90
2124;DHT22;1068;52.460;13.528;2022-08-21T04:18:10;19.80;99.90
2124;DHT22;1068;52.460;13.528;2022-08-21T04:20:37;19.80;99.90
2124;DHT22;1068;52.460;13.528;2022-08-21T04:23:05;19.80;99.90
2124;DHT22;1068;52.460;13.528;2022-08-21T04:25:32;19.80;99.90
2124;DHT22;1068;52.460;13.528;2022-08-21T04:27:58;19.90;99.90
2124;DHT22;1068;52.460;13.528;2022-08-21T04:30:26;19.90;99.90
2124;DHT22;1068;52.460;13.528;2022-08-21T04:32:52;19.90;99.90
2124;DHT22;1068;52.460;13.528;2022-08-21T04:35:22;19.90;99.90
2124;DHT22;1068;52.460;13.528;2022-08-21T04:37:49;19.80;99.90
2124;DHT22;1068;52.460;13.528;2022-08-21T04:40:17;19.90;99.90
2124;DHT22;1068;52.460;13.528;2022-08-21T04:42:46;19.90;99.90
2124;DHT22;1068;52.460;13.528;2022-08-21T04:45:17;19.90;99.90
2124;DHT22;1068;52.460;13.528;2022-08-21T04:47:46;19.80;99.90
2124;DHT22;1068;52.460;13.528;2022-08-21T04:50:13;19.90;99.90
2124;DHT22;1068;52.460;13.528;2022-08-21T04:52:39;19.90;99.90
2124;DHT22;1068;52.460;13.528;2022-08-21T04:55:06;19.80;99.90
2124;DHT22;1068;52.460;13.528;2022-08-21T04:57:33;19.70;99.90
2124;DHT22;1068;52.460;13.528;2022-08-21T05:00:02;19.70;99.90
2124;DHT22;1068;52.460;13.528;2022-08-21T05:02:30;19.70;99.90
2124;DHT22;1068;52.460;13.528;2022-08-21T05:04:59;19.70;99.90
2124;DHT22;1068;52.460;13.528;2022-08-21T05:07:28;19.70;99.90
2124;DHT22;1068;52.460;13.528;2022-08-21T05:09:55;19.70;99.90
2124;DHT22;1068;52.460;13.528;2022-08-21T05:12:22;19.70;99.90
2124;DHT22;1068;52.460;13.528;2022-08-21T05:14:49;19.70;99.90
2124;DHT22;1068;52.460;13.528;2022-08-21T05:17:15;19.70;99.90
2124;DHT22;1068;52.460;13.528;2022-08-21T05:19:42;19.70;99.90
2124;DHT22;1068;52.460;13.528;2022-08-21T05:22:10;19.70;99.90
2124;DHT22;1068;52.460;13.528;2022-08-21T05:24:36;19.70;99.90
2124;DHT22;1068;52.460;13.528;2022-08-21T05:27:03;19.70;99.90
2124;DHT22;1068;52.460;13.528;2022-08-21T05:29:32;19.70;99.90
2124;DHT22;1068;52.460;13.528;2022-08-21T05:31:58;19.70;99.90
2124;DHT22;1068;52.460;13.528;2022-08-21T05:34:25;19.70;99.90
2124;DHT22;1068;52.460;13.528;2022-08-21T05:36:51;19.70;99.90
2124;DHT22;1068;52.460;13.528;2022-08-21T05:39:19;19.70;99.90
2124;DHT22;1068;52.460;13.528;2022-08-21T05:41:45;19.80;99.90
2124;DHT22;1068;52.460;13.528;2022-08-21T05:44:13;19.80;99.90
2124;DHT22;1068;52.460;13.528;2022-08-21T05:46:39;19.80;99.90
2124;DHT22;1068;52.460;13.528;2022-08-21T05:49:06;19.80;99.90
2124;DHT22;1068;52.460;13.528;2022-08-21T05:51:32;19.70;99.90
2124;DHT22;1068;52.460;13.528;2022-08-21T05:53:59;19.70;99.90
2124;DHT22;1068;52.460;13.528;2022-08-21T05:56:27;19.70;99.90
2124;DHT22;1068;52.460;13.528;2022-08-21T05:58:53;19.70;99.90
2124;DHT22;1068;52.460;13.528;2022-08-21T06:01:20;19.70;99.90
2124;DHT22;1068;52.460;13.528;2022-08-21T06:03:47;19.70;99.90
2124;DHT22;1068;52.460;13.528;2022-08-21T06:06:13;19.80;99.90
2124;DHT22;1068;52.460;13.528;2022-08-21T06:08:41;19.80;99.90
2124;DHT22;1068;52.460;13.528;2022-08-21T06:11:08;19.80;99.90
2124;DHT22;1068;52.460;13.528;2022-08-21T06:13:36;19.80;99.90
2124;DHT22;1068;52.460;13.528;2022-08-21T06:16:06;19.80;99.90
2124;DHT22;1068;52.460;13.528;2022-08-21T06:18:33;19.90;99.90
2124;DHT22;1068;52.460;13.528;2022-08-21T06:21:00;19.90;99.90
2124;DHT22;1068;52.460;13.528;2022-08-21T06:23:26;20.00;99.90
2124;DHT22;1068;52.460;13.528;2022-08-21T06:25:53;20.00;99.90
2124;DHT22;1068;52.460;13.528;2022-08-21T06:28:20;20.00;99.90
2124;DHT22;1068;52.460;13.528;2022-08-21T06:30:48;20.10;99.90
2124;DHT22;1068;52.460;13.528;2022-08-21T06:33:14;20.10;99.90
2124;DHT22;1068;52.460;13.528;2022-08-21T06:35:41;20.10;99.90
2124;DHT22;1068;52.460;13.528;2022-08-21T06:38:07;20.10;99.90
2124;DHT22;1068;52.460;13.528;2022-08-21T06:40:34;20.20;99.90
2124;DHT22;1068;52.460;13.528;2022-08-21T06:43:07;20.20;99.90
2124;DHT22;1068;52.460;13.528;2022-08-21T06:45:34;20.30;99.90
2124;DHT22;1068;52.460;13.528;2022-08-21T06:48:02;20.30;99.90
2124;DHT22;1068;52.460;13.528;2022-08-21T06:50:29;20.40;99.90
2124;DHT22;1068;52.460;13.528;2022-08-21T06:53:02;20.40;99.90
2124;DHT22;1068;52.460;13.528;2022-08-21T06:55:29;20.40;99.90
2124;DHT22;1068;52.460;13.528;2022-08-21T06:57:56;20.50;99.90
2124;DHT22;1068;52.460;13.528;2022-08-21T07:00:22;20.50;99.90
2124;DHT22;1068;52.460;13.528;2022-08-21T07:02:49;20.50;99.90
2124;DHT22;1068;52.460;13.528;2022-08-21T07:05:17;20.60;99.90
2124;DHT22;1068;52.460;13.528;2022-08-21T07:07:43;20.70;99.90
2124;DHT22;1068;52.460;13.528;2022-08-21T07:10:10;20.70;99.90
2124;DHT22;1068;52.460;13.528;2022-08-21T07:12:36;20.90;99.90
2124;DHT22;1068;52.460;13.528;2022-08-21T07:15:03;20.90;99.90
2124;DHT22;1068;52.460;13.528;2022-08-21T07:17:30;20.90;99.90
2124;DHT22;1068;52.460;13.528;2022-08-21T07:19:56;21.00;99.90
2124;DHT22;1068;52.460;13.528;2022-08-21T07:22:25;21.00;99.90
2124;DHT22;1068;52.460;13.528;2022-08-21T07:24:53;21.10;99.90
2124;DHT22;1068;52.460;13.528;2022-08-21T07:27:19;21.10;99.90
2124;DHT22;1068;52.460;13.528;2022-08-21T07:29:46;21.00;99.90
2124;DHT22;1068;52.460;13.528;2022-08-21T07:32:12;21.10;99.90
2124;DHT22;1068;52.460;13.528;2022-08-21T07:34:40;21.20;99.90
2124;DHT22;1068;52.460;13.528;2022-08-21T07:37:06;21.20;99.90
2124;DHT22;1068;52.460;13.528;2022-08-21T07:39:34;21.20;99.90
2124;DHT22;1068;52.460;13.528;2022-08-21T07:42:01;21.30;99.90
2124;DHT22;1068;52.460;13.528;2022-08-21T07:44:28;21.40;99.90
2124;DHT22;1068;52.460;13.528;2022-08-21T07:46:55;21.00;99.90
2124;DHT22;1068;52.460;13.528;2022-08-21T07:49:21;21.10;99.90
2124;DHT22;1068;52.460;13.528;2022-08-21T07:51:48;21.20;99.90
2124;DHT22;1068;52.460;13.528;2022-08-21T07:54:14;21.20;99.90
2124;DHT22;1068;52.460;13.528;2022-08-21T07:56:42;21.30;99.90
2124;DHT22;1068;52.460;13.528;2022-08-21T07:59:08;21.40;99.90
2124;DHT22;1068;52.460;13.528;2022-08-21T08:01:35;21.40;99.90
2124;DHT22;1068;52.460;13.528;2022-08-21T08:04:02;21.40;99.90
2124;DHT22;1068;52.460;13.528;2022-08-21T08:06:29;21.50;99.90
2124;DHT22;1068;52.460;13.528;2022-08-21T08:08:56;21.60;99.90
2124;DHT22;1068;52.460;13.528;2022-08-21T08:11:22;21.60;99.90
2124;DHT22;1068;52.460;13.528;2022-08-21T08:13:52;21.70;99.90
2124;DHT22;1068;52.460;13.528;2022-08-21T08:16:19;21.80;99.90
2124;DHT22;1068;52.460;13.528;2022-08-21T08:18:45;21.80;99.90
2124;DHT22;1068;52.460;13.528;2022-08-21T08:21:12;21.80;99.90
2124;DHT22;1068;52.460;13.528;2022-08-21T08:23:39;21.60;99.90
2124;DHT22;1068;52.460;13.528;2022-08-21T08:26:06;21.70;99.90
2124;DHT22;1068;52.460;13.528;2022-08-21T08:28:33;21.90;99.90
2124;DHT22;1068;52.460;13.528;2022-08-21T08:31:01;22.10;99.90
2124;DHT22;1068;52.460;13.528;2022-08-21T08:33:28;21.90;99.90
2124;DHT22;1068;52.460;13.528;2022-08-21T08:35:55;21.70;99.90
2124;DHT22;1068;52.460;13.528;2022-08-21T08:38:23;21.90;99.90
2124;DHT22;1068;52.460;13.528;2022-08-21T08:40:54;21.70;99.90
2124;DHT22;1068;52.460;13.528;2022-08-21T08:43:21;21.90;99.90
2124;DHT22;1068;52.460;13.528;2022-08-21T08:45:51;22.00;99.90
2124;DHT22;1068;52.460;13.528;2022-08-21T08:48:31;22.20;99.90
2124;DHT22;1068;52.460;13.528;2022-08-21T08:51:00;22.30;99.90
2124;DHT22;1068;52.460;13.528;2022-08-21T08:53:30;22.30;99.90
2124;DHT22;1068;52.460;13.528;2022-08-21T08:56:00;22.40;99.90
2124;DHT22;1068;52.460;13.528;2022-08-21T08:58:30;22.50;99.90
2124;DHT22;1068;52.460;13.528;2022-08-21T09:00:57;22.30;99.90
2124;DHT22;1068;52.460;13.528;2022-08-21T09:03:27;22.40;99.90
2124;DHT22;1068;52.460;13.528;2022-08-21T09:05:58;22.40;99.90
2124;DHT22;1068;52.460;13.528;2022-08-21T09:08:41;22.50;99.90
2124;DHT22;1068;52.460;13.528;2022-08-21T09:11:23;22.60;99.90
2124;DHT22;1068;52.460;13.528;2022-08-21T09:14:00;22.70;99.90
2124;DHT22;1068;52.460;13.528;2022-08-21T09:16:34;22.60;99.90
2124;DHT22;1068;52.460;13.528;2022-08-21T09:19:11;22.30;99.90
2124;DHT22;1068;52.460;13.528;2022-08-21T09:21:49;22.40;99.90
2124;DHT22;1068;52.460;13.528;2022-08-21T09:24:26;22.60;99.90
2124;DHT22;1068;52.460;13.528;2022-08-21T09:26:59;22.40;99.90
2124;DHT22;1068;52.460;13.528;2022-08-21T09:29:31;22.50;99.90
2124;DHT22;1068;52.460;13.528;2022-08-21T09:31:58;22.50;99.90
2124;DHT22;1068;52.460;13.528;2022-08-21T09:34:27;22.30;99.90
2124;DHT22;1068;52.460;13.528;2022-08-21T09:36:54;22.20;99.90
2124;DHT22;1068;52.460;13.528;2022-08-21T09:39:25;22.30;99.90
2124;DHT22;1068;52.460;13.528;2022-08-21T09:41:57;22.40;99.90
2124;DHT22;1068;52.460;13.528;2022-08-21T09:44:26;22.70;99.90
2124;DHT22;1068;52.460;13.528;2022-08-21T09:46:52;22.50;99.90
2124;DHT22;1068;52.460;13.528;2022-08-21T09:49:28;22.60;99.90
2124;DHT22;1068;52.460;13.528;2022-08-21T09:51:55;22.70;99.90
2124;DHT22;1068;52.460;13.528;2022-08-21T09:54:27;22.60;99.90
2124;DHT22;1068;52.460;13.528;2022-08-21T09:56:56;22.70;99.90
2124;DHT22;1068;52.460;13.528;2022-08-21T09:59:42;22.70;99.90
2124;DHT22;1068;52.460;13.528;2022-08-21T10:02:34;22.40;99.90
2124;DHT22;1068;52.460;13.528;2022-08-21T10:05:14;22.40;99.90
2124;DHT22;1068;52.460;13.528;2022-08-21T10:07:42;22.50;99.90
2124;DHT22;1068;52.460;13.528;2022-08-21T10:10:14;22.60;99.90
2124;DHT22;1068;52.460;13.528;2022-08-21T10:12:47;22.80;99.90
2124;DHT22;1068;52.460;13.528;2022-08-21T10:15:20;23.00;99.90
2124;DHT22;1068;52.460;13.528;2022-08-21T10:18:00;23.20;99.90
2124;DHT22;1068;52.460;13.528;2022-08-21T10:20:37;23.10;99.90
2124;DHT22;1068;52.460;13.528;2022-08-21T10:23:18;23.10;99.90
2124;DHT22;1068;52.460;13.528;2022-08-21T10:25:50;23.00;99.90
2124;DHT22;1068;52.460;13.528;2022-08-21T10:28:23;23.20;99.90
2124;DHT22;1068;52.460;13.528;2022-08-21T10:30:58;22.90;99.90
2124;DHT22;1068;52.460;13.528;2022-08-21T10:33:33;23.10;99.90
2124;DHT22;1068;52.460;13.528;2022-08-21T10:36:10;23.10;99.90
2124;DHT22;1068;52.460;13.528;2022-08-21T10:38:52;23.20;99.90
2124;DHT22;1068;52.460;13.528;2022-08-21T10:44:17;23.50;99.90
2124;DHT22;1068;52.460;13.528;2022-08-21T10:46:54;23.70;99.90
2124;DHT22;1068;52.460;13.528;2022-08-21T10:49:29;23.80;99.90
2124;DHT22;1068;52.460;13.528;2022-08-21T10:52:27;23.80;99.90
2124;DHT22;1068;52.460;13.528;2022-08-21T10:54:59;23.90;99.90
2124;DHT22;1068;52.460;13.528;2022-08-21T10:57:33;24.00;99.90
2124;DHT22;1068;52.460;13.528;2022-08-21T11:00:05;24.10;99.90
2124;DHT22;1068;52.460;13.528;2022-08-21T11:02:39;24.30;99.90
2124;DHT22;1068;52.460;13.528;2022-08-21T11:05:11;24.20;99.90
2124;DHT22;1068;52.460;13.528;2022-08-21T11:07:46;24.40;99.90
2124;DHT22;1068;52.460;13.528;2022-08-21T11:10:18;24.50;99.90
2124;DHT22;1068;52.460;13.528;2022-08-21T11:12:52;24.60;99.90
2124;DHT22;1068;52.460;13.528;2022-08-21T11:15:29;24.50;99.90
2124;DHT22;1068;52.460;13.528;2022-08-21T11:18:07;24.50;99.90
2124;DHT22;1068;52.460;13.528;2022-08-21T11:20:41;24.70;99.90
2124;DHT22;1068;52.460;13.528;2022-08-21T11:23:14;24.60;99.90
2124;DHT22;1068;52.460;13.528;2022-08-21T11:25:47;24.60;99.90
2124;DHT22;1068;52.460;13.528;2022-08-21T11:28:17;24.50;99.90
2124;DHT22;1068;52.460;13.528;2022-08-21T11:30:53;24.40;99.90
2124;DHT22;1068;52.460;13.528;2022-08-21T11:33:30;24.70;99.90
2124;DHT22;1068;52.460;13.528;2022-08-21T11:36:02;24.90;99.90
2124;DHT22;1068;52.460;13.528;2022-08-21T11:38:37;25.10;99.90
2124;DHT22;1068;52.460;13.528;2022-08-21T11:41:14;25.10;99.90
2124;DHT22;1068;52.460;13.528;2022-08-21T11:43:45;25.20;99.90
2124;DHT22;1068;52.460;13.528;2022-08-21T11:46:28;25.40;99.90
2124;DHT22;1068;52.460;13.528;2022-08-21T11:49:10;25.30;99.90
2124;DHT22;1068;52.460;13.528;2022-08-21T11:51:48;25.00;99.90
2124;DHT22;1068;52.460;13.528;2022-08-21T11:54:24;24.80;99.90
2124;DHT22;1068;52.460;13.528;2022-08-21T11:56:57;25.10;99.90
2124;DHT22;1068;52.460;13.528;2022-08-21T11:59:28;24.60;99.90
2124;DHT22;1068;52.460;13.528;2022-08-21T12:01:59;24.50;99.90
2124;DHT22;1068;52.460;13.528;2022-08-21T12:04:28;24.80;99.90
2124;DHT22;1068;52.460;13.528;2022-08-21T12:07:08;25.20;99.90
2124;DHT22;1068;52.460;13.528;2022-08-21T12:09:37;25.40;99.90
2124;DHT22;1068;52.460;13.528;2022-08-21T12:12:10;25.50;99.90
2124;DHT22;1068;52.460;13.528;2022-08-21T12:14:39;25.30;99.90
2124;DHT22;1068;52.460;13.528;2022-08-21T12:17:07;25.40;99.90
2124;DHT22;1068;52.460;13.528;2022-08-21T12:19:35;25.40;99.90
2124;DHT22;1068;52.460;13.528;2022-08-21T12:22:09;25.40;99.90
2124;DHT22;1068;52.460;13.528;2022-08-21T12:24:39;25.30;99.90
2124;DHT22;1068;52.460;13.528;2022-08-21T12:27:20;24.80;99.90
2124;DHT22;1068;52.460;13.528;2022-08-21T12:29:52;24.70;99.90
2124;DHT22;1068;52.460;13.528;2022-08-21T12:32:24;24.80;99.90
2124;DHT22;1068;52.460;13.528;2022-08-21T12:34:55;24.70;99.90
2124;DHT22;1068;52.460;13.528;2022-08-21T12:37:28;24.90;99.90
2124;DHT22;1068;52.460;13.528;2022-08-21T12:39:59;25.20;99.90
2124;DHT22;1068;52.460;13.528;2022-08-21T12:42:31;25.40;99.90
2124;DHT22;1068;52.460;13.528;2022-08-21T12:45:04;25.70;99.90
2124;DHT22;1068;52.460;13.528;2022-08-21T12:47:34;25.90;99.90
2124;DHT22;1068;52.460;13.528;2022-08-21T12:50:05;25.80;99.90
2124;DHT22;1068;52.460;13.528;2022-08-21T12:52:35;25.90;99.90
2124;DHT22;1068;52.460;13.528;2022-08-21T12:55:05;26.10;99.90
2124;DHT22;1068;52.460;13.528;2022-08-21T12:57:31;26.20;99.90
2124;DHT22;1068;52.460;13.528;2022-08-21T12:59:59;26.00;99.90
2124;DHT22;1068;52.460;13.528;2022-08-21T13:02:29;26.30;99.90
2124;DHT22;1068;52.460;13.528;2022-08-21T13:04:57;26.10;99.90
2124;DHT22;1068;52.460;13.528;2022-08-21T13:07:28;26.30;99.90
2124;DHT22;1068;52.460;13.528;2022-08-21T13:09:58;26.40;99.90
2124;DHT22;1068;52.460;13.528;2022-08-21T13:12:27;26.60;99.90
2124;DHT22;1068;52.460;13.528;2022-08-21T13:14:56;26.70;99.90
2124;DHT22;1068;52.460;13.528;2022-08-21T13:17:25;26.20;99.90
2124;DHT22;1068;52.460;13.528;2022-08-21T13:19:54;26.20;99.90
2124;DHT22;1068;52.460;13.528;2022-08-21T13:22:21;25.90;99.90
2124;DHT22;1068;52.460;13.528;2022-08-21T13:24:48;25.90;99.90
2124;DHT22;1068;52.460;13.528;2022-08-21T13:27:18;26.20;99.90
2124;DHT22;1068;52.460;13.528;2022-08-21T13:29:46;26.50;99.90
2124;DHT22;1068;52.460;13.528;2022-08-21T13:32:20;26.30;99.90
2124;DHT22;1068;52.460;13.528;2022-08-21T13:34:48;26.40;99.90
2124;DHT22;1068;52.460;13.528;2022-08-21T13:37:14;25.80;99.90
2124;DHT22;1068;52.460;13.528;2022-08-21T13:39:41;25.70;99.90
2124;DHT22;1068;52.460;13.528;2022-08-21T13:42:14;25.70;99.90
2124;DHT22;1068;52.460;13.528;2022-08-21T13:44:42;25.80;99.90
2124;DHT22;1068;52.460;13.528;2022-08-21T13:47:13;26.00;99.70
2124;DHT22;1068;52.460;13.528;2022-08-21T13:49:42;25.80;99.90
2124;DHT22;1068;52.460;13.528;2022-08-21T13:52:15;25.50;99.50
2124;DHT22;1068;52.460;13.528;2022-08-21T13:54:42;25.30;99.90
2124;DHT22;1068;52.460;13.528;2022-08-21T13:57:16;25.40;99.90
2124;DHT22;1068;52.460;13.528;2022-08-21T13:59:43;25.70;99.90
2124;DHT22;1068;52.460;13.528;2022-08-21T14:02:14;25.40;99.90
2124;DHT22;1068;52.460;13.528;2022-08-21T14:04:47;25.10;99.90
2124;DHT22;1068;52.460;13.528;2022-08-21T14:07:19;25.30;99.90
2124;DHT22;1068;52.460;13.528;2022-08-21T14:09:47;25.20;99.90
2124;DHT22;1068;52.460;13.528;2022-08-21T14:12:16;25.30;99.90
2124;DHT22;1068;52.460;13.528;2022-08-21T14:14:43;25.50;99.90
2124;DHT22;1068;52.460;13.528;2022-08-21T14:17:16;25.80;99.90
2124;DHT22;1068;52.460;13.528;2022-08-21T14:19:52;25.50;99.90
2124;DHT22;1068;52.460;13.528;2022-08-21T14:22:23;25.00;99.90
2124;DHT22;1068;52.460;13.528;2022-08-21T14:25:00;24.90;99.90
2124;DHT22;1068;52.460;13.528;2022-08-21T14:27:29;25.00;99.90
2124;DHT22;1068;52.460;13.528;2022-08-21T14:29:58;25.20;99.90
2124;DHT22;1068;52.460;13.528;2022-08-21T14:32:28;25.40;99.30
2124;DHT22;1068;52.460;13.528;2022-08-21T14:34:56;25.50;99.30
2124;DHT22;1068;52.460;13.528;2022-08-21T14:37:23;25.40;99.90
2124;DHT22;1068;52.460;13.528;2022-08-21T14:39:50;25.60;99.90
2124;DHT22;1068;52.460;13.528;2022-08-21T14:42:17;25.80;99.90
2124;DHT22;1068;52.460;13.528;2022-08-21T14:44:44;26.00;99.90
2124;DHT22;1068;52.460;13.528;2022-08-21T14:47:10;25.80;98.60
2124;DHT22;1068;52.460;13.528;2022-08-21T14:49:38;24.90;98.50
2124;DHT22;1068;52.460;13.528;2022-08-21T14:52:05;24.90;99.60
2124;DHT22;1068;52.460;13.528;2022-08-21T14:54:32;24.90;99.90
2124;DHT22;1068;52.460;13.528;2022-08-21T14:57:01;25.10;99.90
2124;DHT22;1068;52.460;13.528;2022-08-21T14:59:29;25.10;99.90
2124;DHT22;1068;52.460;13.528;2022-08-21T15:01:57;25.20;99.90
2124;DHT22;1068;52.460;13.528;2022-08-21T15:04:23;25.10;99.90
2124;DHT22;1068;52.460;13.528;2022-08-21T15:06:51;24.90;99.90
2124;DHT22;1068;52.460;13.528;2022-08-21T15:09:17;24.80;99.90
2124;DHT22;1068;52.460;13.528;2022-08-21T15:11:44;24.80;99.90
2124;DHT22;1068;52.460;13.528;2022-08-21T15:14:13;24.80;99.90
2124;DHT22;1068;52.460;13.528;2022-08-21T15:16:42;24.60;99.90
2124;DHT22;1068;52.460;13.528;2022-08-21T15:19:08;24.50;99.90
2124;DHT22;1068;52.460;13.528;2022-08-21T15:21:35;24.50;99.90
2124;DHT22;1068;52.460;13.528;2022-08-21T15:24:03;24.60;99.90
2124;DHT22;1068;52.460;13.528;2022-08-21T15:26:30;24.80;99.70
2124;DHT22;1068;52.460;13.528;2022-08-21T15:28:56;24.70;98.90
2124;DHT22;1068;52.460;13.528;2022-08-21T15:31:25;24.70;99.30
2124;DHT22;1068;52.460;13.528;2022-08-21T15:33:51;24.90;99.90
2124;DHT22;1068;52.460;13.528;2022-08-21T15:36:18;25.00;99.90
2124;DHT22;1068;52.460;13.528;2022-08-21T15:38:44;25.10;99.90
2124;DHT22;1068;52.460;13.528;2022-08-21T15:41:13;25.10;99.80
2124;DHT22;1068;52.460;13.528;2022-08-21T15:43:44;25.10;99.90
2124;DHT22;1068;52.460;13.528;2022-08-21T15:46:13;25.10;99.70
2124;DHT22;1068;52.460;13.528;2022-08-21T15:48:40;25.10;99.90
2124;DHT22;1068;52.460;13.528;2022-08-21T15:51:08;25.10;99.90
2124;DHT22;1068;52.460;13.528;2022-08-21T15:53:35;24.90;99.90
2124;DHT22;1068;52.460;13.528;2022-08-21T15:56:04;25.00;99.90
2124;DHT22;1068;52.460;13.528;2022-08-21T15:58:32;25.00;99.90
2124;DHT22;1068;52.460;13.528;2022-08-21T16:00:59;24.90;99.90